sensor_id;sensor_type;location;lat;lon;timestamp;pressure;altitude;pressure_sealevel;temperature;humidity
59971;BME280;45825;45.434;9.116;2023-02-17T00:01:56;101666.00;;;9.70;77.04
59971;BME280;45825;45.434;9.116;2023-02-17T00:04:22;101656.34;;;9.71;76.20
59971;BME280;45825;45.434;9.116;2023-02-17T00:06:47;101656.19;;;9.75;76.35
59971;BME280;45825;45.434;9.116;2023-02-17T00:09:13;101656.88;;;9.82;75.37
59971;BME280;45825;45.434;9.116;2023-02-17T00:11:38;101654.56;;;9.71;75.90
59971;BME280;45825;45.434;9.116;2023-02-17T00:14:04;101657.81;;;9.79;75.94
59971;BME280;45825;45.434;9.116;2023-02-17T00:16:29;101653.81;;;9.68;76.14
59971;BME280;45825;45.434;9.116;2023-02-17T00:18:56;101653.03;;;9.64;75.91
59971;BME280;45825;45.434;9.116;2023-02-17T00:21:24;101657.47;;;9.62;75.83
59971;BME280;45825;45.434;9.116;2023-02-17T00:23:51;101649.72;;;9.57;76.35
59971;BME280;45825;45.434;9.116;2023-02-17T00:26:17;101648.00;;;9.56;76.47
59971;BME280;45825;45.434;9.116;2023-02-17T00:28:43;101648.72;;;9.61;76.30
59971;BME280;45825;45.434;9.116;2023-02-17T00:31:12;101650.66;;;9.55;76.30
59971;BME280;45825;45.434;9.116;2023-02-17T00:33:38;101649.84;;;9.53;76.40
59971;BME280;45825;45.434;9.116;2023-02-17T00:36:10;101639.47;;;9.48;76.66
59971;BME280;45825;45.434;9.116;2023-02-17T00:38:35;101651.47;;;9.57;76.44
59971;BME280;45825;45.434;9.116;2023-02-17T00:41:01;101646.34;;;9.52;76.25
59971;BME280;45825;45.434;9.116;2023-02-17T00:43:27;101647.22;;;9.53;76.07
59971;BME280;45825;45.434;9.116;2023-02-17T00:45:52;101648.16;;;9.50;76.72
59971;BME280;45825;45.434;9.116;2023-02-17T00:48:18;101637.38;;;9.59;76.05
59971;BME280;45825;45.434;9.116;2023-02-17T00:50:43;101630.66;;;9.50;76.16
59971;BME280;45825;45.434;9.116;2023-02-17T00:53:09;101644.56;;;9.54;76.12
59971;BME280;45825;45.434;9.116;2023-02-17T00:55:34;101638.44;;;9.54;76.82
59971;BME280;45825;45.434;9.116;2023-02-17T00:58:00;101645.19;;;9.62;76.30
59971;BME280;45825;45.434;9.116;2023-02-17T01:00:25;101640.13;;;9.56;76.04
59971;BME280;45825;45.434;9.116;2023-02-17T01:02:50;101643.03;;;9.45;76.28
59971;BME280;45825;45.434;9.116;2023-02-17T01:05:15;101644.84;;;9.43;76.64
59971;BME280;45825;45.434;9.116;2023-02-17T01:07:41;101651.25;;;9.34;77.26
59971;BME280;45825;45.434;9.116;2023-02-17T01:10:07;101653.00;;;9.34;77.18
59971;BME280;45825;45.434;9.116;2023-02-17T01:12:33;101650.44;;;9.32;76.61
59971;BME280;45825;45.434;9.116;2023-02-17T01:14:59;101657.56;;;9.27;77.46
59971;BME280;45825;45.434;9.116;2023-02-17T01:17:24;101654.94;;;9.27;77.27
59971;BME280;45825;45.434;9.116;2023-02-17T01:19:50;101649.59;;;9.30;77.13
59971;BME280;45825;45.434;9.116;2023-02-17T01:22:15;101646.03;;;9.33;76.66
59971;BME280;45825;45.434;9.116;2023-02-17T01:24:40;101651.53;;;9.23;77.58
59971;BME280;45825;45.434;9.116;2023-02-17T01:27:06;101646.13;;;9.30;76.86
59971;BME280;45825;45.434;9.116;2023-02-17T01:29:31;101644.34;;;9.30;76.69
59971;BME280;45825;45.434;9.116;2023-02-17T01:31:57;101643.59;;;9.27;76.62
59971;BME280;45825;45.434;9.116;2023-02-17T01:34:22;101643.59;;;9.27;77.01
59971;BME280;45825;45.434;9.116;2023-02-17T01:36:47;101636.66;;;9.24;76.85
59971;BME280;45825;45.434;9.116;2023-02-17T01:39:15;101637.56;;;9.23;76.64
59971;BME280;45825;45.434;9.116;2023-02-17T01:41:41;101641.91;;;9.24;77.00
59971;BME280;45825;45.434;9.116;2023-02-17T01:44:19;101636.66;;;9.24;77.08
59971;BME280;45825;45.434;9.116;2023-02-17T01:46:47;101635.00;;;9.20;76.93
59971;BME280;45825;45.434;9.116;2023-02-17T01:49:18;101637.91;;;9.11;77.14
59971;BME280;45825;45.434;9.116;2023-02-17T01:52:33;101646.59;;;9.13;77.65
59971;BME280;45825;45.434;9.116;2023-02-17T01:54:46;101646.47;;;9.17;76.92
59971;BME280;45825;45.434;9.116;2023-02-17T01:57:15;101639.78;;;9.05;77.75
59971;BME280;45825;45.434;9.116;2023-02-17T01:59:43;101627.13;;;9.20;78.19
59971;BME280;45825;45.434;9.116;2023-02-17T02:02:08;101624.34;;;9.25;78.32
59971;BME280;45825;45.434;9.116;2023-02-17T02:04:37;101618.31;;;9.21;78.49
59971;BME280;45825;45.434;9.116;2023-02-17T02:07:05;101618.31;;;9.21;78.19
59971;BME280;45825;45.434;9.116;2023-02-17T02:09:37;101614.69;;;9.27;78.03
59971;BME280;45825;45.434;9.116;2023-02-17T02:12:34;101614.69;;;9.27;78.38
59971;BME280;45825;45.434;9.116;2023-02-17T02:15:02;101617.56;;;9.17;78.38
59971;BME280;45825;45.434;9.116;2023-02-17T02:17:48;101613.22;;;9.16;78.66
59971;BME280;45825;45.434;9.116;2023-02-17T02:34:47;101637.38;;;8.96;77.32
59971;BME280;45825;45.434;9.116;2023-02-17T02:37:20;101625.03;;;9.01;77.62
59971;BME280;45825;45.434;9.116;2023-02-17T02:39:51;101629.38;;;9.02;77.20
59971;BME280;45825;45.434;9.116;2023-02-17T02:42:21;101631.09;;;9.02;76.67
59971;BME280;45825;45.434;9.116;2023-02-17T02:44:47;101623.22;;;9.03;76.83
59971;BME280;45825;45.434;9.116;2023-02-17T02:47:38;101620.91;;;8.91;77.87
59971;BME280;45825;45.434;9.116;2023-02-17T02:50:06;101620.03;;;8.90;78.53
59971;BME280;45825;45.434;9.116;2023-02-17T02:52:41;101617.47;;;8.89;78.94
59971;BME280;45825;45.434;9.116;2023-02-17T02:55:24;101610.56;;;8.85;79.07
59971;BME280;45825;45.434;9.116;2023-02-17T02:58:05;101612.34;;;8.84;79.12
59971;BME280;45825;45.434;9.116;2023-02-17T03:04:08;101614.19;;;8.80;79.51
59971;BME280;45825;45.434;9.116;2023-02-17T03:06:53;101607.94;;;8.85;79.37
59971;BME280;45825;45.434;9.116;2023-02-17T03:09:25;101604.59;;;8.79;80.12
59971;BME280;45825;45.434;9.116;2023-02-17T03:11:52;101610.78;;;8.77;80.25
59971;BME280;45825;45.434;9.116;2023-02-17T03:14:20;101607.84;;;8.88;79.69
59971;BME280;45825;45.434;9.116;2023-02-17T03:16:46;101603.91;;;8.73;80.65
59971;BME280;45825;45.434;9.116;2023-02-17T03:19:12;101599.69;;;8.65;81.30
59971;BME280;45825;45.434;9.116;2023-02-17T03:24:10;101611.78;;;8.73;81.07
59971;BME280;45825;45.434;9.116;2023-02-17T03:26:35;101607.69;;;8.61;81.96
59971;BME280;45825;45.434;9.116;2023-02-17T03:29:00;101614.50;;;8.68;81.71
59971;BME280;45825;45.434;9.116;2023-02-17T03:31:26;101604.94;;;8.65;80.64
59971;BME280;45825;45.434;9.116;2023-02-17T03:33:51;101611.94;;;8.65;80.58
59971;BME280;45825;45.434;9.116;2023-02-17T03:36:17;101609.50;;;8.59;80.93
59971;BME280;45825;45.434;9.116;2023-02-17T03:38:43;101610.28;;;8.62;80.38
59971;BME280;45825;45.434;9.116;2023-02-17T03:41:08;101615.34;;;8.70;80.11
59971;BME280;45825;45.434;9.116;2023-02-17T03:43:33;101623.22;;;8.69;79.23
59971;BME280;45825;45.434;9.116;2023-02-17T03:45:59;101618.88;;;8.68;79.01
59971;BME280;45825;45.434;9.116;2023-02-17T03:48:24;101622.44;;;8.65;78.65
59971;BME280;45825;45.434;9.116;2023-02-17T03:50:50;101612.94;;;8.61;78.47
59971;BME280;45825;45.434;9.116;2023-02-17T03:53:15;101614.25;;;8.43;78.92
59971;BME280;45825;45.434;9.116;2023-02-17T03:55:40;101612.47;;;8.43;79.75
59971;BME280;45825;45.434;9.116;2023-02-17T03:58:06;101621.75;;;8.58;78.42
59971;BME280;45825;45.434;9.116;2023-02-17T04:00:31;101619.38;;;8.47;78.83
59971;BME280;45825;45.434;9.116;2023-02-17T04:02:56;101620.97;;;8.55;78.67
59971;BME280;45825;45.434;9.116;2023-02-17T04:05:22;101615.97;;;8.44;78.60
59971;BME280;45825;45.434;9.116;2023-02-17T04:07:48;101622.81;;;8.51;78.13
59971;BME280;45825;45.434;9.116;2023-02-17T04:10:14;101620.91;;;8.58;78.47
59971;BME280;45825;45.434;9.116;2023-02-17T04:12:40;101598.63;;;8.38;78.68
59971;BME280;45825;45.434;9.116;2023-02-17T04:15:05;101618.59;;;8.42;79.29
59971;BME280;45825;45.434;9.116;2023-02-17T04:17:31;101606.72;;;8.27;80.94
59971;BME280;45825;45.434;9.116;2023-02-17T04:19:57;101624.94;;;8.35;80.96
59971;BME280;45825;45.434;9.116;2023-02-17T04:22:22;101630.00;;;8.41;80.46
59971;BME280;45825;45.434;9.116;2023-02-17T04:24:49;101634.31;;;8.44;80.39
59971;BME280;45825;45.434;9.116;2023-02-17T04:27:14;101636.84;;;8.47;79.58
59971;BME280;45825;45.434;9.116;2023-02-17T04:29:40;101625.47;;;8.48;79.21
59971;BME280;45825;45.434;9.116;2023-02-17T04:32:05;101637.75;;;8.47;79.33
59971;BME280;45825;45.434;9.116;2023-02-17T04:34:30;101644.91;;;8.41;79.68
59971;BME280;45825;45.434;9.116;2023-02-17T04:36:55;101646.84;;;8.32;80.31
59971;BME280;45825;45.434;9.116;2023-02-17T04:39:21;101632.91;;;8.30;80.22
59971;BME280;45825;45.434;9.116;2023-02-17T04:41:46;101631.31;;;8.23;80.55
59971;BME280;45825;45.434;9.116;2023-02-17T04:44:12;101641.13;;;8.15;79.95
59971;BME280;45825;45.434;9.116;2023-02-17T04:46:37;101644.13;;;7.97;80.36
59971;BME280;45825;45.434;9.116;2023-02-17T04:49:02;101641.22;;;8.10;79.59
59971;BME280;45825;45.434;9.116;2023-02-17T04:51:27;101640.31;;;8.11;79.59
59971;BME280;45825;45.434;9.116;2023-02-17T04:53:53;101635.34;;;8.00;79.56
59971;BME280;45825;45.434;9.116;2023-02-17T04:56:18;101636.34;;;7.94;79.98
59971;BME280;45825;45.434;9.116;2023-02-17T04:58:43;101649.53;;;7.91;80.60
59971;BME280;45825;45.434;9.116;2023-02-17T05:01:09;101645.31;;;7.84;80.94
59971;BME280;45825;45.434;9.116;2023-02-17T05:03:34;101650.03;;;7.66;81.46
59971;BME280;45825;45.434;9.116;2023-02-17T05:06:00;101646.47;;;7.71;81.15
59971;BME280;45825;45.434;9.116;2023-02-17T05:08:25;101646.59;;;7.64;81.66
59971;BME280;45825;45.434;9.116;2023-02-17T05:10:51;101638.56;;;7.72;81.28
59971;BME280;45825;45.434;9.116;2023-02-17T05:13:17;101630.78;;;7.69;80.95
59971;BME280;45825;45.434;9.116;2023-02-17T05:15:43;101648.00;;;7.81;80.52
59971;BME280;45825;45.434;9.116;2023-02-17T05:18:09;101651.56;;;7.77;80.68
59971;BME280;45825;45.434;9.116;2023-02-17T05:20:35;101650.75;;;7.75;80.53
59971;BME280;45825;45.434;9.116;2023-02-17T05:23:00;101656.06;;;7.72;80.32
59971;BME280;45825;45.434;9.116;2023-02-17T05:25:25;101659.66;;;7.66;80.40
59971;BME280;45825;45.434;9.116;2023-02-17T05:27:51;101658.78;;;7.67;80.16
59971;BME280;45825;45.434;9.116;2023-02-17T05:30:16;101664.09;;;7.62;80.06
59971;BME280;45825;45.434;9.116;2023-02-17T05:32:41;101663.22;;;7.63;80.19
59971;BME280;45825;45.434;9.116;2023-02-17T05:35:07;101661.50;;;7.61;80.18
59971;BME280;45825;45.434;9.116;2023-02-17T05:37:32;101628.00;;;7.34;80.65
59971;BME280;45825;45.434;9.116;2023-02-17T05:39:57;101656.34;;;7.58;79.80
59971;BME280;45825;45.434;9.116;2023-02-17T05:42:23;101659.22;;;7.45;80.55
59971;BME280;45825;45.434;9.116;2023-02-17T05:44:53;101666.00;;;7.54;80.31
59971;BME280;45825;45.434;9.116;2023-02-17T05:47:18;101667.19;;;7.39;80.44
59971;BME280;45825;45.434;9.116;2023-02-17T05:49:43;101669.63;;;7.01;82.26
59971;BME280;45825;45.434;9.116;2023-02-17T05:52:08;101674.78;;;7.06;83.30
59971;BME280;45825;45.434;9.116;2023-02-17T05:54:34;101670.09;;;6.75;84.87
59971;BME280;45825;45.434;9.116;2023-02-17T05:56:59;101673.28;;;6.94;84.33
59971;BME280;45825;45.434;9.116;2023-02-17T05:59:24;101673.97;;;7.04;83.96
59971;BME280;45825;45.434;9.116;2023-02-17T06:01:50;101672.75;;;7.20;83.44
59971;BME280;45825;45.434;9.116;2023-02-17T06:04:15;101673.72;;;7.16;84.80
59971;BME280;45825;45.434;9.116;2023-02-17T06:06:40;101673.63;;;7.22;84.30
59971;BME280;45825;45.434;9.116;2023-02-17T06:09:06;101675.81;;;6.97;86.71
59971;BME280;45825;45.434;9.116;2023-02-17T06:11:31;101676.72;;;6.94;87.32
59971;BME280;45825;45.434;9.116;2023-02-17T06:13:57;101680.84;;;7.09;87.23
59971;BME280;45825;45.434;9.116;2023-02-17T06:16:22;101672.09;;;7.10;86.84
59971;BME280;45825;45.434;9.116;2023-02-17T06:18:47;101676.75;;;6.93;88.51
59971;BME280;45825;45.434;9.116;2023-02-17T06:21:13;101680.97;;;7.02;88.12
59971;BME280;45825;45.434;9.116;2023-02-17T06:23:38;101673.84;;;7.10;87.47
59971;BME280;45825;45.434;9.116;2023-02-17T06:26:03;101682.63;;;7.07;87.31
59971;BME280;45825;45.434;9.116;2023-02-17T06:28:29;101684.34;;;7.08;87.37
59971;BME280;45825;45.434;9.116;2023-02-17T06:30:54;101683.28;;;6.68;89.44
59971;BME280;45825;45.434;9.116;2023-02-17T06:33:19;101687.16;;;6.44;92.55
59971;BME280;45825;45.434;9.116;2023-02-17T06:35:49;101696.31;;;6.13;100.00
59971;BME280;45825;45.434;9.116;2023-02-17T06:38:15;101696.28;;;6.17;100.00
59971;BME280;45825;45.434;9.116;2023-02-17T06:40:40;101702.59;;;5.98;100.00
59971;BME280;45825;45.434;9.116;2023-02-17T06:43:05;101697.09;;;6.20;100.00
59971;BME280;45825;45.434;9.116;2023-02-17T06:45:32;101699.19;;;5.90;100.00
59971;BME280;45825;45.434;9.116;2023-02-17T06:47:57;101711.75;;;5.62;100.00
59971;BME280;45825;45.434;9.116;2023-02-17T06:50:22;101707.88;;;5.94;100.00
59971;BME280;45825;45.434;9.116;2023-02-17T06:52:48;101704.16;;;6.13;100.00
59971;BME280;45825;45.434;9.116;2023-02-17T06:55:13;101707.38;;;6.31;100.00
59971;BME280;45825;45.434;9.116;2023-02-17T06:57:38;101713.56;;;6.25;100.00
59971;BME280;45825;45.434;9.116;2023-02-17T07:00:04;101715.19;;;6.34;100.00
59971;BME280;45825;45.434;9.116;2023-02-17T07:02:30;101717.66;;;6.43;100.00
59971;BME280;45825;45.434;9.116;2023-02-17T07:04:55;101713.22;;;6.50;100.00
59971;BME280;45825;45.434;9.116;2023-02-17T07:07:20;101720.13;;;6.54;100.00
59971;BME280;45825;45.434;9.116;2023-02-17T07:09:46;101720.19;;;6.50;100.00
59971;BME280;45825;45.434;9.116;2023-02-17T07:12:11;101719.16;;;6.60;100.00
59971;BME280;45825;45.434;9.116;2023-02-17T07:14:36;101729.63;;;6.62;100.00
59971;BME280;45825;45.434;9.116;2023-02-17T07:17:02;101726.78;;;6.74;100.00
59971;BME280;45825;45.434;9.116;2023-02-17T07:19:27;101730.19;;;6.81;100.00
59971;BME280;45825;45.434;9.116;2023-02-17T07:21:52;101731.00;;;6.84;100.00
59971;BME280;45825;45.434;9.116;2023-02-17T07:24:18;101725.63;;;6.92;100.00
59971;BME280;45825;45.434;9.116;2023-02-17T07:26:43;101736.84;;;7.01;100.00
59971;BME280;45825;45.434;9.116;2023-02-17T07:29:09;101720.88;;;7.15;100.00
59971;BME280;45825;45.434;9.116;2023-02-17T07:31:34;101735.41;;;7.31;100.00
59971;BME280;45825;45.434;9.116;2023-02-17T07:34:01;101726.69;;;7.31;100.00
59971;BME280;45825;45.434;9.116;2023-02-17T07:36:26;101733.38;;;7.47;100.00
59971;BME280;45825;45.434;9.116;2023-02-17T07:38:52;101735.19;;;7.44;100.00
59971;BME280;45825;45.434;9.116;2023-02-17T07:41:20;101741.38;;;7.39;100.00
59971;BME280;45825;45.434;9.116;2023-02-17T07:43:47;101742.13;;;7.46;100.00
59971;BME280;45825;45.434;9.116;2023-02-17T07:46:13;101736.91;;;7.45;100.00
59971;BME280;45825;45.434;9.116;2023-02-17T07:48:39;101741.09;;;7.55;100.00
59971;BME280;45825;45.434;9.116;2023-02-17T07:51:09;101735.66;;;7.66;100.00
59971;BME280;45825;45.434;9.116;2023-02-17T07:53:35;101738.28;;;7.66;100.00
59971;BME280;45825;45.434;9.116;2023-02-17T07:56:02;101734.84;;;7.62;100.00
59971;BME280;45825;45.434;9.116;2023-02-17T07:58:30;101744.34;;;7.66;100.00
59971;BME280;45825;45.434;9.116;2023-02-17T08:00:56;101736.16;;;7.83;100.00
59971;BME280;45825;45.434;9.116;2023-02-17T08:03:21;101739.50;;;7.92;100.00
59971;BME280;45825;45.434;9.116;2023-02-17T08:05:47;101742.09;;;7.93;100.00
59971;BME280;45825;45.434;9.116;2023-02-17T08:08:15;101749.16;;;7.90;100.00
59971;BME280;45825;45.434;9.116;2023-02-17T08:11:00;101741.81;;;8.06;100.00
59971;BME280;45825;45.434;9.116;2023-02-17T08:13:44;101753.88;;;8.15;100.00
59971;BME280;45825;45.434;9.116;2023-02-17T08:16:09;101748.34;;;8.27;99.64
59971;BME280;45825;45.434;9.116;2023-02-17T08:18:34;101749.22;;;8.28;99.44
59971;BME280;45825;45.434;9.116;2023-02-17T08:21:00;101748.34;;;8.27;99.08
59971;BME280;45825;45.434;9.116;2023-02-17T08:23:25;101747.34;;;8.33;99.02
59971;BME280;45825;45.434;9.116;2023-02-17T08:25:51;101745.44;;;8.41;98.12
59971;BME280;45825;45.434;9.116;2023-02-17T08:28:16;101743.78;;;8.37;98.99
59971;BME280;45825;45.434;9.116;2023-02-17T08:30:41;101745.44;;;8.41;98.76
59971;BME280;45825;45.434;9.116;2023-02-17T08:33:07;101743.50;;;8.51;98.62
59971;BME280;45825;45.434;9.116;2023-02-17T08:35:32;101754.75;;;8.56;98.36
59971;BME280;45825;45.434;9.116;2023-02-17T08:37:57;101753.88;;;8.56;98.67
59971;BME280;45825;45.434;9.116;2023-02-17T08:40:23;101754.59;;;8.62;98.67
59971;BME280;45825;45.434;9.116;2023-02-17T08:42:48;101760.34;;;8.78;98.20
59971;BME280;45825;45.434;9.116;2023-02-17T08:45:15;101769.78;;;8.86;97.72
59971;BME280;45825;45.434;9.116;2023-02-17T08:47:41;101756.59;;;8.89;97.70
59971;BME280;45825;45.434;9.116;2023-02-17T08:50:08;101769.53;;;8.97;97.37
59971;BME280;45825;45.434;9.116;2023-02-17T08:52:34;101766.81;;;9.00;96.73
59971;BME280;45825;45.434;9.116;2023-02-17T08:54:59;101765.66;;;9.12;96.74
59971;BME280;45825;45.434;9.116;2023-02-17T08:57:25;101770.34;;;8.99;97.46
59971;BME280;45825;45.434;9.116;2023-02-17T08:59:51;101752.72;;;9.04;97.26
59971;BME280;45825;45.434;9.116;2023-02-17T09:02:17;101767.06;;;9.25;96.11
59971;BME280;45825;45.434;9.116;2023-02-17T09:04:43;101771.31;;;9.31;96.70
59971;BME280;45825;45.434;9.116;2023-02-17T09:07:11;101771.97;;;9.39;96.80
59971;BME280;45825;45.434;9.116;2023-02-17T09:09:37;101769.59;;;9.61;95.22
59971;BME280;45825;45.434;9.116;2023-02-17T09:12:02;101764.09;;;9.71;94.99
59971;BME280;45825;45.434;9.116;2023-02-17T09:14:28;101768.53;;;9.69;94.51
59971;BME280;45825;45.434;9.116;2023-02-17T09:16:53;101776.97;;;9.82;93.92
59971;BME280;45825;45.434;9.116;2023-02-17T09:19:20;101771.47;;;9.89;93.34
59971;BME280;45825;45.434;9.116;2023-02-17T09:21:45;101770.25;;;10.01;93.20
59971;BME280;45825;45.434;9.116;2023-02-17T09:24:13;101762.06;;;10.12;92.73
59971;BME280;45825;45.434;9.116;2023-02-17T09:26:38;101767.06;;;10.20;92.22
59971;BME280;45825;45.434;9.116;2023-02-17T09:29:04;101766.22;;;10.19;91.94
59971;BME280;45825;45.434;9.116;2023-02-17T09:31:29;101757.28;;;10.25;91.96
59971;BME280;45825;45.434;9.116;2023-02-17T09:33:56;101770.38;;;10.27;91.77
59971;BME280;45825;45.434;9.116;2023-02-17T09:36:25;101770.38;;;10.27;91.84
59971;BME280;45825;45.434;9.116;2023-02-17T09:38:51;101764.22;;;10.28;90.53
59971;BME280;45825;45.434;9.116;2023-02-17T09:41:21;101769.56;;;10.25;90.64
59971;BME280;45825;45.434;9.116;2023-02-17T09:43:48;101756.69;;;10.45;90.61
59971;BME280;45825;45.434;9.116;2023-02-17T09:48:53;101757.63;;;10.71;89.73
59971;BME280;45825;45.434;9.116;2023-02-17T09:51:28;101760.47;;;10.92;88.58
59971;BME280;45825;45.434;9.116;2023-02-17T09:54:15;101766.09;;;11.08;86.45
59971;BME280;45825;45.434;9.116;2023-02-17T09:56:44;101769.81;;;11.28;85.90
59971;BME280;45825;45.434;9.116;2023-02-17T09:59:17;101762.88;;;11.25;84.75
59971;BME280;45825;45.434;9.116;2023-02-17T10:01:45;101765.69;;;11.46;82.87
59971;BME280;45825;45.434;9.116;2023-02-17T10:04:18;101763.94;;;11.20;83.60
59971;BME280;45825;45.434;9.116;2023-02-17T10:06:48;101761.72;;;11.34;83.87
59971;BME280;45825;45.434;9.116;2023-02-17T10:09:27;101754.50;;;11.65;83.36
59971;BME280;45825;45.434;9.116;2023-02-17T10:12:01;101760.53;;;11.68;82.31
59971;BME280;45825;45.434;9.116;2023-02-17T10:14:32;101756.16;;;11.91;81.71
59971;BME280;45825;45.434;9.116;2023-02-17T10:17:03;101751.59;;;12.20;80.70
59971;BME280;45825;45.434;9.116;2023-02-17T10:19:33;101753.75;;;12.55;78.72
59971;BME280;45825;45.434;9.116;2023-02-17T10:22:21;101761.34;;;12.85;77.45
59971;BME280;45825;45.434;9.116;2023-02-17T10:24:46;101755.38;;;13.02;76.26
59971;BME280;45825;45.434;9.116;2023-02-17T10:27:41;101765.31;;;13.18;75.19
59971;BME280;45825;45.434;9.116;2023-02-17T10:35:19;101762.66;;;13.99;70.88
59971;BME280;45825;45.434;9.116;2023-02-17T10:40:49;101753.03;;;14.91;67.32
59971;BME280;45825;45.434;9.116;2023-02-17T10:43:21;101746.16;;;15.04;65.55
59971;BME280;45825;45.434;9.116;2023-02-17T10:45:47;101742.56;;;14.51;68.47
59971;BME280;45825;45.434;9.116;2023-02-17T10:48:24;101745.44;;;14.83;66.16
59971;BME280;45825;45.434;9.116;2023-02-17T10:50:53;101736.69;;;15.52;64.92
59971;BME280;45825;45.434;9.116;2023-02-17T10:53:23;101739.50;;;16.46;60.44
59971;BME280;45825;45.434;9.116;2023-02-17T10:56:26;101738.63;;;17.81;56.53
59971;BME280;45825;45.434;9.116;2023-02-17T10:59:26;101723.06;;;18.59;53.24
59971;BME280;45825;45.434;9.116;2023-02-17T11:04:45;101711.19;;;21.15;43.39
59971;BME280;45825;45.434;9.116;2023-02-17T11:07:13;101701.34;;;22.28;39.24
59971;BME280;45825;45.434;9.116;2023-02-17T11:09:45;101699.97;;;23.09;37.36
59971;BME280;45825;45.434;9.116;2023-02-17T11:12:14;101685.66;;;23.61;35.57
59971;BME280;45825;45.434;9.116;2023-02-17T11:14:49;101694.97;;;24.27;34.74
59971;BME280;45825;45.434;9.116;2023-02-17T11:17:37;101675.69;;;23.92;34.05
59971;BME280;45825;45.434;9.116;2023-02-17T11:22:40;101673.22;;;25.07;32.83
59971;BME280;45825;45.434;9.116;2023-02-17T11:27:58;101665.72;;;26.76;29.72
59971;BME280;45825;45.434;9.116;2023-02-17T11:30:25;101656.13;;;26.73;29.69
59971;BME280;45825;45.434;9.116;2023-02-17T11:32:51;101654.66;;;26.34;29.78
59971;BME280;45825;45.434;9.116;2023-02-17T11:37:59;101639.31;;;25.99;30.21
59971;BME280;45825;45.434;9.116;2023-02-17T11:40:27;101636.44;;;27.08;28.90
59971;BME280;45825;45.434;9.116;2023-02-17T11:42:58;101641.06;;;27.58;27.86
59971;BME280;45825;45.434;9.116;2023-02-17T11:45:27;101635.38;;;27.95;27.42
59971;BME280;45825;45.434;9.116;2023-02-17T11:51:05;101629.28;;;26.45;28.49
59971;BME280;45825;45.434;9.116;2023-02-17T11:56:16;101623.28;;;25.61;30.30
59971;BME280;45825;45.434;9.116;2023-02-17T12:06:56;101608.66;;;24.50;31.95
59971;BME280;45825;45.434;9.116;2023-02-17T12:12:28;101600.31;;;26.82;28.80
59971;BME280;45825;45.434;9.116;2023-02-17T12:34:00;101557.47;;;27.98;26.58
59971;BME280;45825;45.434;9.116;2023-02-17T12:36:31;101555.72;;;28.47;26.52
59971;BME280;45825;45.434;9.116;2023-02-17T12:41:44;101556.25;;;27.59;27.39
59971;BME280;45825;45.434;9.116;2023-02-17T12:44:14;101546.78;;;26.34;28.37
59971;BME280;45825;45.434;9.116;2023-02-17T12:46:43;101537.41;;;27.25;27.40
59971;BME280;45825;45.434;9.116;2023-02-17T12:49:13;101536.78;;;28.39;26.13
59971;BME280;45825;45.434;9.116;2023-02-17T12:51:42;101533.31;;;29.10;25.32
59971;BME280;45825;45.434;9.116;2023-02-17T13:00:01;101515.16;;;29.42;24.73
59971;BME280;45825;45.434;9.116;2023-02-17T13:02:36;101521.25;;;28.16;25.77
59971;BME280;45825;45.434;9.116;2023-02-17T13:05:03;101521.59;;;28.13;25.67
59971;BME280;45825;45.434;9.116;2023-02-17T13:07:47;101511.13;;;29.46;24.88
59971;BME280;45825;45.434;9.116;2023-02-17T13:10:41;101512.13;;;28.34;25.66
59971;BME280;45825;45.434;9.116;2023-02-17T13:13:12;101515.03;;;26.28;27.87
59971;BME280;45825;45.434;9.116;2023-02-17T13:15:45;101519.56;;;25.19;29.30
59971;BME280;45825;45.434;9.116;2023-02-17T13:18:27;101523.16;;;22.32;33.55
59971;BME280;45825;45.434;9.116;2023-02-17T13:23:43;101521.16;;;20.80;36.96
59971;BME280;45825;45.434;9.116;2023-02-17T13:26:14;101515.22;;;24.42;31.30
59971;BME280;45825;45.434;9.116;2023-02-17T13:28:42;101510.91;;;25.98;29.19
59971;BME280;45825;45.434;9.116;2023-02-17T13:31:17;101509.84;;;26.70;28.49
59971;BME280;45825;45.434;9.116;2023-02-17T13:33:51;101505.31;;;27.30;27.45
59971;BME280;45825;45.434;9.116;2023-02-17T13:38:53;101489.09;;;26.70;27.58
59971;BME280;45825;45.434;9.116;2023-02-17T13:41:20;101480.91;;;25.38;28.98
59971;BME280;45825;45.434;9.116;2023-02-17T13:43:46;101496.09;;;23.58;31.57
59971;BME280;45825;45.434;9.116;2023-02-17T13:46:18;101484.69;;;22.64;33.04
59971;BME280;45825;45.434;9.116;2023-02-17T13:48:44;101484.44;;;21.94;34.23
59971;BME280;45825;45.434;9.116;2023-02-17T13:51:24;101487.53;;;22.41;33.71
59971;BME280;45825;45.434;9.116;2023-02-17T13:53:50;101481.31;;;23.23;32.39
59971;BME280;45825;45.434;9.116;2023-02-17T13:56:27;101482.91;;;24.04;31.48
59971;BME280;45825;45.434;9.116;2023-02-17T13:58:54;101485.00;;;24.30;30.93
59971;BME280;45825;45.434;9.116;2023-02-17T14:01:30;101468.25;;;25.02;29.61
59971;BME280;45825;45.434;9.116;2023-02-17T14:03:55;101465.44;;;25.04;29.43
59971;BME280;45825;45.434;9.116;2023-02-17T14:08:52;101453.84;;;26.72;27.47
59971;BME280;45825;45.434;9.116;2023-02-17T14:11:27;101452.38;;;27.54;26.65
59971;BME280;45825;45.434;9.116;2023-02-17T14:13:55;101452.72;;;27.67;26.21
59971;BME280;45825;45.434;9.116;2023-02-17T14:16:26;101445.25;;;27.69;26.38
59971;BME280;45825;45.434;9.116;2023-02-17T14:19:08;101442.03;;;27.49;26.39
59971;BME280;45825;45.434;9.116;2023-02-17T14:21:35;101454.53;;;28.56;25.32
59971;BME280;45825;45.434;9.116;2023-02-17T14:24:01;101441.69;;;27.77;25.67
59971;BME280;45825;45.434;9.116;2023-02-17T14:29:04;101447.78;;;27.38;25.98
59971;BME280;45825;45.434;9.116;2023-02-17T14:31:37;101445.75;;;27.40;26.26
59971;BME280;45825;45.434;9.116;2023-02-17T14:34:07;101433.72;;;28.09;25.69
59971;BME280;45825;45.434;9.116;2023-02-17T14:36:37;101430.50;;;28.62;25.26
59971;BME280;45825;45.434;9.116;2023-02-17T14:39:06;101429.22;;;27.68;25.72